createdAt,value
2019-03-24T00:00:32.776Z,4.3
2019-03-24T00:01:40.632Z,4.3
2019-03-24T00:02:33.076Z,4.3
2019-03-24T00:03:33.200Z,4.3
2019-03-24T00:04:33.144Z,4.3
2019-03-24T00:05:33.243Z,4.3
2019-03-24T00:06:33.161Z,4.3
2019-03-24T00:07:33.207Z,4.3
2019-03-24T00:08:33.250Z,4.3
2019-03-24T00:09:33.298Z,4.3
2019-03-24T00:10:33.358Z,4.3
2019-03-24T00:11:33.402Z,4.3
2019-03-24T00:12:33.477Z,4.3
2019-03-24T00:13:33.513Z,4.2
2019-03-24T00:14:33.571Z,4.2
2019-03-24T00:15:33.592Z,4.2
2019-03-24T00:16:33.664Z,4.2
2019-03-24T00:17:33.717Z,4.2
2019-03-24T00:18:33.831Z,4.2
2019-03-24T00:19:33.817Z,4.2
2019-03-24T00:20:33.886Z,4.2
2019-03-24T00:21:33.923Z,4.2
2019-03-24T00:22:33.970Z,4.2
2019-03-24T00:23:34.005Z,4.2
2019-03-24T00:24:34.071Z,4.2
2019-03-24T00:25:34.142Z,4.2
2019-03-24T00:26:34.166Z,4.2
2019-03-24T00:27:34.312Z,4.2
2019-03-24T00:28:34.240Z,4.1
2019-03-24T00:29:34.315Z,4.1
2019-03-24T00:30:34.384Z,4.1
2019-03-24T00:31:34.420Z,4.1
2019-03-24T00:32:34.515Z,4.1
2019-03-24T00:33:34.592Z,4.1
2019-03-24T00:34:34.605Z,4.1
2019-03-24T00:35:34.694Z,4.1
2019-03-24T00:36:34.746Z,4.1
2019-03-24T00:37:34.780Z,4.1
2019-03-24T00:38:34.845Z,4.1
2019-03-24T00:39:34.914Z,4.1
2019-03-24T00:40:34.975Z,4.1
2019-03-24T00:41:35.025Z,4.1
2019-03-24T00:42:35.045Z,4.1
2019-03-24T00:43:35.132Z,4.1
2019-03-24T00:44:35.147Z,4.1
2019-03-24T00:45:36.921Z,4.1
2019-03-24T00:46:35.297Z,4.1
2019-03-24T00:47:35.329Z,4.1
2019-03-24T00:48:35.406Z,4.1
2019-03-24T00:49:35.442Z,4.1
2019-03-24T00:50:35.486Z,4.1
2019-03-24T00:51:35.555Z,4.1
2019-03-24T00:52:35.583Z,4.1
2019-03-24T00:53:35.684Z,4.1
2019-03-24T00:54:35.697Z,4.1
2019-03-24T00:55:35.755Z,4.1
2019-03-24T00:56:35.802Z,4.1
2019-03-24T00:57:37.660Z,4.1
2019-03-24T00:58:35.923Z,4.1
2019-03-24T00:59:35.967Z,4.1
2019-03-24T01:00:36.077Z,4.1
2019-03-24T01:01:36.351Z,4.1
2019-03-24T01:02:36.155Z,4.1
2019-03-24T01:03:36.908Z,4.1
2019-03-24T01:04:36.287Z,4.1
2019-03-24T01:05:36.537Z,4.1
2019-03-24T01:06:36.384Z,4.1
2019-03-24T01:07:37.055Z,4
2019-03-24T01:08:36.465Z,4
2019-03-24T01:09:36.966Z,4
2019-03-24T01:10:36.545Z,4
2019-03-24T01:11:37.153Z,4
2019-03-24T01:12:36.679Z,4
2019-03-24T01:13:36.895Z,4
2019-03-24T01:14:36.819Z,4
2019-03-24T01:15:47.274Z,4
2019-03-24T01:16:36.885Z,4
2019-03-24T01:17:37.109Z,4
2019-03-24T01:18:37.049Z,4
2019-03-24T01:19:37.430Z,4
2019-03-24T01:20:37.113Z,4
2019-03-24T01:21:37.136Z,4
2019-03-24T01:22:37.230Z,4
2019-03-24T01:23:37.432Z,4
2019-03-24T01:24:37.367Z,4
2019-03-24T01:25:37.543Z,4
2019-03-24T01:26:37.500Z,4
2019-03-24T01:27:37.559Z,4
2019-03-24T01:28:37.604Z,3.9
2019-03-24T01:29:37.678Z,3.9
2019-03-24T01:30:37.736Z,3.9
2019-03-24T01:31:37.767Z,3.9
2019-03-24T01:32:37.857Z,3.9
2019-03-24T01:33:37.948Z,3.9
2019-03-24T01:34:37.953Z,3.9
2019-03-24T01:35:37.988Z,3.9
2019-03-24T01:36:38.064Z,3.9
2019-03-24T01:37:38.133Z,3.9
2019-03-24T01:38:38.174Z,3.9
2019-03-24T01:39:38.238Z,3.9
2019-03-24T01:40:38.284Z,3.9
2019-03-24T01:41:38.366Z,3.9
2019-03-24T01:42:38.404Z,3.9
2019-03-24T01:43:38.464Z,3.9
2019-03-24T01:44:38.577Z,3.9
2019-03-24T01:45:38.599Z,3.9
2019-03-24T01:46:38.644Z,3.9
2019-03-24T01:47:38.718Z,3.9
2019-03-24T01:48:38.752Z,3.9
2019-03-24T01:49:38.788Z,3.9
2019-03-24T01:50:38.801Z,3.9
2019-03-24T01:51:38.873Z,3.9
2019-03-24T01:52:38.932Z,3.9
2019-03-24T01:53:38.967Z,3.9
2019-03-24T01:54:39.008Z,3.9
2019-03-24T01:55:39.201Z,3.9
2019-03-24T01:56:39.123Z,3.9
2019-03-24T01:57:39.156Z,3.9
2019-03-24T01:58:39.279Z,3.9
2019-03-24T01:59:39.318Z,3.9
2019-03-24T02:00:39.372Z,3.9
2019-03-24T02:01:39.413Z,3.9
2019-03-24T02:02:39.451Z,3.9
2019-03-24T02:03:39.522Z,3.9
2019-03-24T02:04:39.527Z,3.9
2019-03-24T02:05:39.598Z,3.9
2019-03-24T02:06:39.725Z,3.9
2019-03-24T02:07:39.734Z,3.9
2019-03-24T02:08:39.806Z,3.9
2019-03-24T02:09:39.873Z,3.9
2019-03-24T02:10:39.909Z,3.9
2019-03-24T02:11:39.985Z,3.9
2019-03-24T02:12:40.042Z,3.9
2019-03-24T02:13:40.099Z,3.9
2019-03-24T02:14:40.101Z,3.9
2019-03-24T02:15:40.161Z,3.9
2019-03-24T02:16:40.231Z,3.9
2019-03-24T02:17:40.277Z,3.9
2019-03-24T02:18:40.386Z,3.9
2019-03-24T02:19:40.416Z,3.9
2019-03-24T02:20:40.471Z,3.9
2019-03-24T02:21:40.555Z,3.9
2019-03-24T02:22:40.601Z,3.9
2019-03-24T02:23:40.669Z,3.9
2019-03-24T02:24:40.735Z,3.9
2019-03-24T02:25:40.787Z,3.9
2019-03-24T02:26:40.839Z,3.9
2019-03-24T02:27:40.876Z,3.9
2019-03-24T02:28:40.953Z,3.9
2019-03-24T02:29:40.958Z,3.9
2019-03-24T02:30:41.069Z,3.9
2019-03-24T02:31:41.054Z,3.9
2019-03-24T02:32:41.104Z,3.9
2019-03-24T02:33:41.213Z,3.9
2019-03-24T02:34:41.228Z,3.9
2019-03-24T02:35:41.274Z,3.9
2019-03-24T02:36:41.324Z,3.9
2019-03-24T02:37:41.385Z,3.9
2019-03-24T02:38:41.596Z,3.8
2019-03-24T02:39:41.531Z,3.8
2019-03-24T02:40:41.576Z,3.8
2019-03-24T02:41:41.633Z,3.8
2019-03-24T02:42:41.703Z,3.8
2019-03-24T02:43:41.725Z,3.8
2019-03-24T02:44:41.798Z,3.8
2019-03-24T02:45:41.838Z,3.8
2019-03-24T02:46:41.897Z,3.8
2019-03-24T02:47:41.946Z,3.8
2019-03-24T02:48:42.056Z,3.8
2019-03-24T02:49:42.043Z,3.8
2019-03-24T02:50:42.105Z,3.8
2019-03-24T02:51:42.197Z,3.8
2019-03-24T02:52:42.217Z,3.8
2019-03-24T02:53:42.541Z,3.8
2019-03-24T02:54:42.374Z,3.8
2019-03-24T02:55:42.667Z,3.8
2019-03-24T02:56:42.517Z,3.8
2019-03-24T02:57:42.458Z,3.8
2019-03-24T02:58:42.574Z,3.8
2019-03-24T02:59:42.529Z,3.8
2019-03-24T03:00:42.586Z,3.8
2019-03-24T03:01:42.673Z,3.8
2019-03-24T03:02:42.718Z,3.8
2019-03-24T03:03:42.846Z,3.8
2019-03-24T03:04:42.811Z,3.8
2019-03-24T03:05:42.891Z,3.8
2019-03-24T03:06:42.927Z,3.8
2019-03-24T03:07:42.992Z,3.8
2019-03-24T03:08:43.041Z,3.8
2019-03-24T03:09:43.071Z,3.8
2019-03-24T03:10:43.152Z,3.8
2019-03-24T03:11:43.187Z,3.8
2019-03-24T03:12:43.262Z,3.8
2019-03-24T03:13:43.392Z,3.8
2019-03-24T03:14:43.417Z,3.8
2019-03-24T03:15:43.415Z,3.8
2019-03-24T03:16:43.496Z,3.8
2019-03-24T03:17:43.510Z,3.8
2019-03-24T03:18:43.622Z,3.8
2019-03-24T03:19:43.663Z,3.8
2019-03-24T03:20:43.686Z,3.8
2019-03-24T03:21:43.831Z,3.8
2019-03-24T03:22:43.806Z,3.8
2019-03-24T03:23:43.838Z,3.8
2019-03-24T03:24:43.897Z,3.8
2019-03-24T03:25:43.951Z,3.8
2019-03-24T03:26:44.033Z,3.8
2019-03-24T03:27:44.085Z,3.8
2019-03-24T03:28:44.148Z,3.8
2019-03-24T03:29:44.235Z,3.8
2019-03-24T03:30:44.273Z,3.8
2019-03-24T03:31:44.308Z,3.8
2019-03-24T03:32:44.379Z,3.8
2019-03-24T03:33:44.456Z,3.8
2019-03-24T03:34:44.475Z,3.8
2019-03-24T03:35:44.542Z,3.8
2019-03-24T03:36:44.585Z,3.8
2019-03-24T03:37:44.648Z,3.8
2019-03-24T03:38:44.668Z,3.8
2019-03-24T03:39:44.737Z,3.8
2019-03-24T03:40:44.857Z,3.8
2019-03-24T03:41:44.913Z,3.8
2019-03-24T03:42:44.914Z,3.8
2019-03-24T03:43:44.955Z,3.8
2019-03-24T03:44:45.021Z,3.8
2019-03-24T03:45:45.042Z,3.8
2019-03-24T03:46:52.180Z,3.8
2019-03-24T03:47:45.146Z,3.8
2019-03-24T03:48:45.338Z,3.8
2019-03-24T03:49:45.244Z,3.7
2019-03-24T03:50:45.286Z,3.7
2019-03-24T03:51:45.346Z,3.7
2019-03-24T03:52:45.409Z,3.7
2019-03-24T03:53:45.473Z,3.7
2019-03-24T03:54:45.480Z,3.7
2019-03-24T03:55:45.577Z,3.7
2019-03-24T03:56:45.607Z,3.7
2019-03-24T03:57:45.671Z,3.7
2019-03-24T03:58:45.719Z,3.7
2019-03-24T03:59:45.789Z,3.7
2019-03-24T04:00:45.830Z,3.7
2019-03-24T04:01:45.902Z,3.7
2019-03-24T04:02:45.932Z,3.7
2019-03-24T04:03:46.023Z,3.7
2019-03-24T04:04:46.051Z,3.7
2019-03-24T04:05:46.091Z,3.7
2019-03-24T04:06:46.184Z,3.7
2019-03-24T04:07:46.249Z,3.7
2019-03-24T04:08:46.273Z,3.7
2019-03-24T04:09:46.296Z,3.7
2019-03-24T04:10:46.380Z,3.7
2019-03-24T04:11:46.457Z,3.7
2019-03-24T04:12:46.587Z,3.7
2019-03-24T04:13:46.592Z,3.7
2019-03-24T04:14:46.586Z,3.7
2019-03-24T04:15:46.646Z,3.7
2019-03-24T04:16:46.729Z,3.7
2019-03-24T04:17:46.794Z,3.7
2019-03-24T04:18:46.862Z,3.7
2019-03-24T04:19:46.879Z,3.7
2019-03-24T04:20:46.938Z,3.7
2019-03-24T04:21:46.984Z,3.7
2019-03-24T04:22:47.089Z,3.7
2019-03-24T04:23:47.139Z,3.7
2019-03-24T04:24:47.199Z,3.7
2019-03-24T04:25:47.481Z,3.7
2019-03-24T04:26:47.279Z,3.7
2019-03-24T04:27:47.351Z,3.7
2019-03-24T04:28:47.396Z,3.7
2019-03-24T04:29:47.411Z,3.7
2019-03-24T04:30:47.465Z,3.7
2019-03-24T04:31:47.563Z,3.7
2019-03-24T04:32:47.604Z,3.7
2019-03-24T04:33:47.707Z,3.7
2019-03-24T04:34:48.152Z,3.7
2019-03-24T04:35:47.780Z,3.7
2019-03-24T04:36:47.839Z,3.7
2019-03-24T04:37:47.891Z,3.7
2019-03-24T04:38:48.114Z,3.7
2019-03-24T04:39:48.204Z,3.7
2019-03-24T04:40:48.028Z,3.7
2019-03-24T04:41:48.163Z,3.7
2019-03-24T04:42:48.112Z,3.7
2019-03-24T04:43:48.212Z,3.7
2019-03-24T04:44:48.323Z,3.7
2019-03-24T04:45:48.324Z,3.7
2019-03-24T04:46:48.338Z,3.7
2019-03-24T04:47:48.377Z,3.7
2019-03-24T04:48:48.453Z,3.7
2019-03-24T04:49:48.463Z,3.7
2019-03-24T04:50:48.577Z,3.7
2019-03-24T04:51:48.586Z,3.7
2019-03-24T04:52:48.637Z,3.7
2019-03-24T04:53:48.682Z,3.7
2019-03-24T04:54:48.761Z,3.7
2019-03-24T04:55:48.796Z,3.7
2019-03-24T04:56:48.811Z,3.7
2019-03-24T04:57:48.901Z,3.7
2019-03-24T04:58:48.969Z,3.7
2019-03-24T04:59:49.024Z,3.7
2019-03-24T05:00:49.107Z,3.7
2019-03-24T05:01:49.177Z,3.8
2019-03-24T05:02:49.205Z,3.8
2019-03-24T05:03:49.295Z,3.7
2019-03-24T05:04:49.319Z,3.7
2019-03-24T05:05:49.428Z,3.8
2019-03-24T05:06:49.458Z,3.8
2019-03-24T05:07:49.515Z,3.8
2019-03-24T05:08:49.567Z,3.8
2019-03-24T05:09:49.577Z,3.8
2019-03-24T05:10:49.635Z,3.8
2019-03-24T05:11:49.703Z,3.8
2019-03-24T05:12:49.765Z,3.8
2019-03-24T05:13:49.829Z,3.8
2019-03-24T05:14:49.824Z,3.8
2019-03-24T05:15:49.949Z,3.8
2019-03-24T05:16:49.946Z,3.8
2019-03-24T05:17:50.001Z,3.8
2019-03-24T05:18:50.072Z,3.8
2019-03-24T05:19:50.086Z,3.8
2019-03-24T05:20:50.160Z,3.8
2019-03-24T05:21:50.195Z,3.8
2019-03-24T05:22:50.241Z,3.8
2019-03-24T05:23:50.318Z,3.8
2019-03-24T05:24:50.331Z,3.8
2019-03-24T05:25:50.746Z,3.8
2019-03-24T05:26:50.429Z,3.8
2019-03-24T05:27:50.501Z,3.8
2019-03-24T05:28:50.591Z,3.8
2019-03-24T05:29:50.606Z,3.8
2019-03-24T05:30:50.698Z,3.8
2019-03-24T05:31:50.727Z,3.8
2019-03-24T05:32:50.833Z,3.8
2019-03-24T05:33:50.857Z,3.8
2019-03-24T05:34:50.849Z,3.8
2019-03-24T05:35:50.905Z,3.8
2019-03-24T05:36:50.994Z,3.8
2019-03-24T05:37:51.094Z,3.8
2019-03-24T05:38:51.081Z,3.8
2019-03-24T05:39:51.108Z,3.8
2019-03-24T05:40:51.156Z,3.8
2019-03-24T05:41:51.203Z,3.8
2019-03-24T05:42:51.268Z,3.8
2019-03-24T05:43:51.328Z,3.8
2019-03-24T05:44:51.388Z,3.8
2019-03-24T05:45:51.433Z,3.8
2019-03-24T05:46:51.470Z,3.8
2019-03-24T05:47:51.547Z,3.9
2019-03-24T05:48:51.601Z,3.9
2019-03-24T05:49:51.721Z,3.9
2019-03-24T05:50:51.677Z,3.9
2019-03-24T05:51:51.761Z,3.9
2019-03-24T05:52:51.785Z,3.9
2019-03-24T05:53:51.881Z,3.9
2019-03-24T05:54:51.899Z,3.9
2019-03-24T05:55:52.188Z,3.9
2019-03-24T05:56:52.040Z,3.9
2019-03-24T05:57:52.081Z,3.9
2019-03-24T05:58:52.130Z,3.9
2019-03-24T05:59:52.187Z,3.9
2019-03-24T06:00:52.249Z,3.9
2019-03-24T06:01:52.305Z,3.9
2019-03-24T06:02:52.346Z,3.9
2019-03-24T06:03:52.438Z,3.9
2019-03-24T06:04:52.433Z,3.9
2019-03-24T06:05:52.514Z,3.9
2019-03-24T06:06:52.561Z,3.9
2019-03-24T06:07:52.723Z,3.9
2019-03-24T06:08:52.635Z,3.9
2019-03-24T06:09:52.743Z,3.9
2019-03-24T06:10:52.749Z,4
2019-03-24T06:11:52.784Z,4
2019-03-24T06:12:52.874Z,4
2019-03-24T06:13:52.909Z,4
2019-03-24T06:14:52.957Z,4
2019-03-24T06:15:52.998Z,4
2019-03-24T06:16:53.079Z,4
2019-03-24T06:17:53.108Z,4
2019-03-24T06:18:53.196Z,4
2019-03-24T06:19:53.222Z,4
2019-03-24T06:20:53.313Z,4
2019-03-24T06:21:53.337Z,4.1
2019-03-24T06:22:53.397Z,4.1
2019-03-24T06:23:53.458Z,4.1
2019-03-24T06:24:55.148Z,4.1
2019-03-24T06:25:53.542Z,4.1
2019-03-24T06:26:53.618Z,4.1
2019-03-24T06:27:53.649Z,4.1
2019-03-24T06:28:53.713Z,4.1
2019-03-24T06:29:53.773Z,4.1
2019-03-24T06:30:53.847Z,4.1
2019-03-24T06:31:53.940Z,4.1
2019-03-24T06:32:53.978Z,4.1
2019-03-24T06:33:54.282Z,4.1
2019-03-24T06:34:55.168Z,4.1
2019-03-24T06:35:54.397Z,4.1
2019-03-24T06:36:54.204Z,4.1
2019-03-24T06:37:54.251Z,4.1
2019-03-24T06:38:54.352Z,4.1
2019-03-24T06:39:54.427Z,4.1
2019-03-24T06:40:54.463Z,4.1
2019-03-24T06:41:54.458Z,4.1
2019-03-24T06:42:54.495Z,4.2
2019-03-24T06:43:54.526Z,4.2
2019-03-24T06:44:54.575Z,4.2
2019-03-24T06:45:54.837Z,4.2
2019-03-24T06:46:54.664Z,4.2
2019-03-24T06:47:58.062Z,4.2
2019-03-24T06:48:54.852Z,4.2
2019-03-24T06:49:54.811Z,4.2
2019-03-24T06:50:54.895Z,4.2
2019-03-24T06:51:54.977Z,4.2
2019-03-24T06:52:54.991Z,4.2
2019-03-24T06:53:55.022Z,4.2
2019-03-24T06:54:55.067Z,4.2
2019-03-24T06:55:55.142Z,4.2
2019-03-24T06:56:55.185Z,4.3
2019-03-24T06:57:55.611Z,4.3
2019-03-24T06:58:55.289Z,4.3
2019-03-24T06:59:55.804Z,4.3
2019-03-24T07:00:55.397Z,4.3
2019-03-24T07:01:55.455Z,4.3
2019-03-24T07:02:55.527Z,4.3
2019-03-24T07:03:56.097Z,4.3
2019-03-24T07:04:55.651Z,4.3
2019-03-24T07:05:56.342Z,4.3
2019-03-24T07:06:55.737Z,4.3
2019-03-24T07:07:55.784Z,4.3
2019-03-24T07:08:55.859Z,4.3
2019-03-24T07:09:56.720Z,4.3
2019-03-24T07:10:55.989Z,4.4
2019-03-24T07:11:55.994Z,4.4
2019-03-24T07:12:56.057Z,4.4
2019-03-24T07:13:56.133Z,4.4
2019-03-24T07:14:56.242Z,4.4
2019-03-24T07:15:57.106Z,4.4
2019-03-24T07:16:56.347Z,4.4
2019-03-24T07:18:08.061Z,4.4
2019-03-24T07:18:56.581Z,4.4
2019-03-24T07:19:56.590Z,4.4
2019-03-24T07:20:56.717Z,4.4
2019-03-24T07:21:58.892Z,4.4
2019-03-24T07:22:56.867Z,4.4
2019-03-24T07:23:56.990Z,4.4
2019-03-24T07:24:57.278Z,4.4
2019-03-24T07:25:56.967Z,4.5
2019-03-24T07:26:57.502Z,4.5
2019-03-24T07:27:57.284Z,4.5
2019-03-24T07:28:57.475Z,4.5
2019-03-24T07:29:57.502Z,4.5
2019-03-24T07:30:57.439Z,4.6
2019-03-24T07:31:57.333Z,4.6
2019-03-24T07:32:57.347Z,4.6
2019-03-24T07:33:58.768Z,4.6
2019-03-24T07:34:57.865Z,4.6
2019-03-24T07:35:58.970Z,4.6
2019-03-24T07:36:57.713Z,4.6
2019-03-24T07:37:59.216Z,4.6
2019-03-24T07:38:57.466Z,4.7
2019-03-24T07:39:59.574Z,4.7
2019-03-24T07:40:57.868Z,4.7
2019-03-24T07:41:58.634Z,4.8
2019-03-24T07:42:58.189Z,4.8
2019-03-24T07:43:58.891Z,4.8
2019-03-24T07:44:57.870Z,4.8
2019-03-24T07:45:58.544Z,4.8
2019-03-24T07:46:58.767Z,4.8
2019-03-24T07:47:59.792Z,4.8
2019-03-24T07:48:58.937Z,4.8
2019-03-24T07:49:58.086Z,4.8
2019-03-24T07:50:59.149Z,4.8
2019-03-24T07:52:01.773Z,4.9
2019-03-24T07:52:59.335Z,4.9
2019-03-24T07:54:00.641Z,4.9
2019-03-24T07:55:00.715Z,4.9
2019-03-24T07:56:00.644Z,4.9
2019-03-24T07:57:00.573Z,4.9
2019-03-24T07:58:02.064Z,4.9
2019-03-24T07:59:00.948Z,4.9
2019-03-24T08:00:01.549Z,4.9
2019-03-24T08:01:01.447Z,5
2019-03-24T08:02:01.778Z,5
2019-03-24T08:02:58.931Z,5
2019-03-24T08:04:01.979Z,5
2019-03-24T08:04:59.545Z,5
2019-03-24T08:05:58.975Z,5
2019-03-24T08:06:59.423Z,5
2019-03-24T08:08:02.234Z,5
2019-03-24T08:08:59.121Z,5.1
2019-03-24T08:09:59.194Z,5.1
2019-03-24T08:10:59.473Z,5.1
2019-03-24T08:11:59.358Z,5.1
2019-03-24T08:12:59.484Z,5.1
2019-03-24T08:13:59.389Z,5.1
2019-03-24T08:15:00.049Z,5.1
2019-03-24T08:15:59.464Z,5.1
2019-03-24T08:16:59.519Z,5.1
2019-03-24T08:17:59.573Z,5.1
2019-03-24T08:18:59.658Z,5.2
2019-03-24T08:19:59.634Z,5.2
2019-03-24T08:20:59.693Z,5.2
2019-03-24T08:21:59.771Z,5.2
2019-03-24T08:22:59.819Z,5.2
2019-03-24T08:23:59.887Z,5.2
2019-03-24T08:24:59.957Z,5.2
2019-03-24T08:26:00.023Z,5.3
2019-03-24T08:27:00.071Z,5.2
2019-03-24T08:28:00.100Z,5.3
2019-03-24T08:29:00.543Z,5.3
2019-03-24T08:30:00.684Z,5.3
2019-03-24T08:31:00.704Z,5.3
2019-03-24T08:32:00.551Z,5.3
2019-03-24T08:33:00.451Z,5.3
2019-03-24T08:34:00.741Z,5.3
2019-03-24T08:35:00.553Z,5.3
2019-03-24T08:36:00.673Z,5.3
2019-03-24T08:37:00.631Z,5.3
2019-03-24T08:38:00.626Z,5.3
2019-03-24T08:39:00.702Z,5.3
2019-03-24T08:40:00.727Z,5.3
2019-03-24T08:41:00.801Z,5.3
2019-03-24T08:42:17.117Z,5.3
2019-03-24T08:43:01.044Z,5.3
2019-03-24T08:44:01.067Z,5.3
2019-03-24T08:45:01.177Z,5.3
2019-03-24T08:46:01.202Z,5.3
2019-03-24T08:47:01.108Z,5.3
2019-03-24T08:48:01.162Z,5.3
2019-03-24T08:49:01.408Z,5.3
2019-03-24T08:50:01.364Z,5.3
2019-03-24T08:51:02.700Z,5.3
2019-03-24T08:52:02.039Z,5.3
2019-03-24T08:53:01.848Z,5.3
2019-03-24T08:54:01.462Z,5.3
2019-03-24T08:55:01.595Z,5.3
2019-03-24T08:56:01.601Z,5.3
2019-03-24T08:57:01.608Z,5.3
2019-03-24T08:58:01.670Z,5.3
2019-03-24T08:59:02.118Z,5.3
2019-03-24T09:00:03.760Z,5.3
2019-03-24T09:01:01.817Z,5.3
2019-03-24T09:02:01.856Z,5.3
2019-03-24T09:03:01.914Z,5.3
2019-03-24T09:04:02.037Z,5.3
2019-03-24T09:05:02.029Z,5.3
2019-03-24T09:06:02.138Z,5.3
2019-03-24T09:07:02.152Z,5.3
2019-03-24T09:08:02.414Z,5.4
2019-03-24T09:09:02.379Z,5.4
2019-03-24T09:10:02.362Z,5.4
2019-03-24T09:11:02.618Z,5.4
2019-03-24T09:12:14.439Z,5.4
2019-03-24T09:13:02.470Z,5.4
2019-03-24T09:14:02.514Z,5.4
2019-03-24T09:15:02.560Z,5.4
2019-03-24T09:16:02.634Z,5.4
2019-03-24T09:17:02.659Z,5.4
2019-03-24T09:18:02.712Z,5.4
2019-03-24T09:19:02.767Z,5.4
2019-03-24T09:20:03.073Z,5.4
2019-03-24T09:21:03.239Z,5.4
2019-03-24T09:22:03.013Z,5.4
2019-03-24T09:23:02.973Z,5.4
2019-03-24T09:24:03.039Z,5.4
2019-03-24T09:25:03.089Z,5.4
2019-03-24T09:26:03.177Z,5.4
2019-03-24T09:27:03.220Z,5.4
2019-03-24T09:28:03.297Z,5.5
2019-03-24T09:29:03.359Z,5.5
2019-03-24T09:30:03.415Z,5.5
2019-03-24T09:31:03.458Z,5.5
2019-03-24T09:32:03.516Z,5.5
2019-03-24T09:33:03.800Z,5.5
2019-03-24T09:34:03.739Z,5.5
2019-03-24T09:35:03.710Z,5.5
2019-03-24T09:36:04.127Z,5.5
2019-03-24T09:37:03.800Z,5.5
2019-03-24T09:38:03.833Z,5.5
2019-03-24T09:39:04.001Z,5.5
2019-03-24T09:40:03.966Z,5.5
2019-03-24T09:41:03.993Z,5.5
2019-03-24T09:42:12.115Z,5.5
2019-03-24T09:43:04.125Z,5.5
2019-03-24T09:44:04.150Z,5.5
2019-03-24T09:45:04.243Z,5.5
2019-03-24T09:46:04.278Z,5.5
2019-03-24T09:47:04.295Z,5.5
2019-03-24T09:48:04.367Z,5.5
2019-03-24T09:49:04.477Z,5.5
2019-03-24T09:50:04.459Z,5.5
2019-03-24T09:51:04.528Z,5.5
2019-03-24T09:52:04.556Z,5.6
2019-03-24T09:53:04.600Z,5.6
2019-03-24T09:54:04.654Z,5.6
2019-03-24T09:55:04.710Z,5.6
2019-03-24T09:56:04.771Z,5.6
2019-03-24T09:57:04.846Z,5.6
2019-03-24T09:58:04.882Z,5.6
2019-03-24T09:59:04.947Z,5.6
2019-03-24T10:00:05.016Z,5.6
2019-03-24T10:01:05.053Z,5.6
2019-03-24T10:02:05.113Z,5.6
2019-03-24T10:03:05.154Z,5.6
2019-03-24T10:04:05.240Z,5.6
2019-03-24T10:05:05.247Z,5.6
2019-03-24T10:06:05.414Z,5.6
2019-03-24T10:07:05.383Z,5.6
2019-03-24T10:08:05.423Z,5.6
2019-03-24T10:09:05.472Z,5.7
2019-03-24T10:10:05.524Z,5.7
2019-03-24T10:11:05.559Z,5.7
2019-03-24T10:12:13.832Z,5.7
2019-03-24T10:13:06.012Z,5.7
2019-03-24T10:14:05.684Z,5.7
2019-03-24T10:15:05.747Z,5.8
2019-03-24T10:16:05.792Z,5.8
2019-03-24T10:17:05.829Z,5.8
2019-03-24T10:18:05.889Z,5.8
2019-03-24T10:19:13.757Z,5.8
2019-03-24T10:20:06.098Z,5.8
2019-03-24T10:21:06.040Z,5.8
2019-03-24T10:22:06.133Z,5.9
2019-03-24T10:23:06.153Z,5.9
2019-03-24T10:24:07.872Z,5.9
2019-03-24T10:25:06.345Z,5.9
2019-03-24T10:26:06.348Z,5.9
2019-03-24T10:27:06.386Z,5.9
2019-03-24T10:28:06.503Z,5.9
2019-03-24T10:29:06.497Z,5.9
2019-03-24T10:30:06.594Z,5.9
2019-03-24T10:31:06.604Z,5.9
2019-03-24T10:32:06.692Z,5.9
2019-03-24T10:33:06.721Z,5.9
2019-03-24T10:34:06.829Z,6
2019-03-24T10:35:06.913Z,6
2019-03-24T10:36:06.914Z,6
2019-03-24T10:37:06.948Z,6
2019-03-24T10:38:07.169Z,6
2019-03-24T10:39:07.070Z,6.1
2019-03-24T10:40:07.192Z,6.1
2019-03-24T10:41:07.256Z,6.1
2019-03-24T10:42:07.277Z,6.1
2019-03-24T10:43:07.308Z,6.1
2019-03-24T10:44:07.461Z,6.2
2019-03-24T10:45:07.394Z,6.2
2019-03-24T10:46:07.436Z,6.2
2019-03-24T10:47:07.469Z,6.2
2019-03-24T10:48:07.547Z,6.3
2019-03-24T10:49:07.614Z,6.3
2019-03-24T10:50:07.617Z,6.3
2019-03-24T10:51:07.698Z,6.3
2019-03-24T10:52:07.704Z,6.3
2019-03-24T10:53:07.755Z,6.3
2019-03-24T10:54:07.787Z,6.3
2019-03-24T10:55:07.889Z,6.3
2019-03-24T10:56:07.899Z,6.3
2019-03-24T10:57:07.910Z,6.3
2019-03-24T10:58:08.075Z,6.4
2019-03-24T10:59:08.046Z,6.4
2019-03-24T11:00:08.067Z,6.4
2019-03-24T11:01:08.133Z,6.4
2019-03-24T11:02:08.203Z,6.4
2019-03-24T11:03:08.270Z,6.4
2019-03-24T11:04:08.353Z,6.4
2019-03-24T11:05:08.326Z,6.5
2019-03-24T11:06:08.385Z,6.5
2019-03-24T11:07:08.572Z,6.5
2019-03-24T11:08:08.478Z,6.6
2019-03-24T11:09:08.565Z,6.6
2019-03-24T11:10:08.600Z,6.6
2019-03-24T11:11:08.650Z,6.7
2019-03-24T11:12:08.748Z,6.7
2019-03-24T11:13:08.796Z,6.7
2019-03-24T11:14:08.880Z,6.8
2019-03-24T11:15:08.923Z,6.8
2019-03-24T11:16:10.215Z,6.8
2019-03-24T11:17:08.993Z,6.8
2019-03-24T11:18:09.083Z,6.8
2019-03-24T11:19:09.163Z,6.9
2019-03-24T11:20:09.225Z,6.9
2019-03-24T11:21:09.229Z,6.9
2019-03-24T11:22:09.303Z,7
2019-03-24T11:23:09.376Z,7.1
2019-03-24T11:24:09.423Z,7.2
2019-03-24T11:25:09.493Z,7.3
2019-03-24T11:26:09.565Z,7.4
2019-03-24T11:27:09.593Z,7.7
2019-03-24T11:28:09.719Z,7.9
2019-03-24T11:29:09.763Z,8.1
2019-03-24T11:30:09.802Z,8.3
2019-03-24T11:31:09.844Z,8.5
2019-03-24T11:32:09.938Z,8.6
2019-03-24T11:33:09.962Z,8.7
2019-03-24T11:34:10.044Z,8.9
2019-03-24T11:35:10.075Z,9
2019-03-24T11:36:10.579Z,9.2
2019-03-24T11:37:10.791Z,9.2
2019-03-24T11:38:10.232Z,9.4
2019-03-24T11:39:10.502Z,9.5
2019-03-24T11:40:10.478Z,9.6
2019-03-24T11:41:10.345Z,9.7
2019-03-24T11:42:10.601Z,9.8
2019-03-24T11:43:10.508Z,9.9
2019-03-24T11:44:10.501Z,10
2019-03-24T11:45:10.480Z,10.1
2019-03-24T11:46:10.523Z,10.1
2019-03-24T11:47:10.596Z,10.1
2019-03-24T11:48:10.651Z,10.3
2019-03-24T11:49:10.797Z,10.4
2019-03-24T11:50:10.699Z,10.3
2019-03-24T11:51:10.772Z,10.4
2019-03-24T11:52:10.874Z,10.5
2019-03-24T11:53:10.982Z,10.6
2019-03-24T11:54:10.950Z,10.7
2019-03-24T11:55:11.343Z,10.7
2019-03-24T11:56:11.043Z,10.7
2019-03-24T11:57:11.141Z,10.8
2019-03-24T11:58:11.183Z,11
2019-03-24T11:59:11.272Z,11.1
2019-03-24T12:00:11.383Z,11.1
2019-03-24T12:01:11.393Z,11.2
2019-03-24T12:02:11.454Z,11.2
2019-03-24T12:03:11.461Z,11.1
2019-03-24T12:04:11.591Z,11.2
2019-03-24T12:05:11.566Z,11.2
2019-03-24T12:06:14.635Z,11.3
2019-03-24T12:07:11.691Z,11.3
2019-03-24T12:08:11.730Z,11.4
2019-03-24T12:09:11.811Z,11.4
2019-03-24T12:10:11.900Z,11.4
2019-03-24T12:11:11.923Z,11.4
2019-03-24T12:12:11.948Z,11.5
2019-03-24T12:13:11.988Z,11.6
2019-03-24T12:14:12.030Z,11.7
2019-03-24T12:15:12.125Z,11.8
2019-03-24T12:16:12.182Z,11.8
2019-03-24T12:17:12.189Z,11.9
2019-03-24T12:18:12.272Z,11.9
2019-03-24T12:19:12.366Z,12
2019-03-24T12:20:12.386Z,12.2
2019-03-24T12:21:12.447Z,12.3
2019-03-24T12:22:12.480Z,12.3
2019-03-24T12:23:12.538Z,12.3
2019-03-24T12:24:12.629Z,12.3
2019-03-24T12:25:12.631Z,12.3
2019-03-24T12:26:12.677Z,12.3
2019-03-24T12:27:12.705Z,12.4
2019-03-24T12:28:12.797Z,12.5
2019-03-24T12:29:12.847Z,12.6
2019-03-24T12:30:12.953Z,12.7
2019-03-24T12:31:12.942Z,12.8
2019-03-24T12:32:15.462Z,12.9
2019-03-24T12:33:13.055Z,13
2019-03-24T12:34:13.148Z,13
2019-03-24T12:35:13.158Z,13.1
2019-03-24T12:36:13.216Z,13.2
2019-03-24T12:37:13.287Z,13.3
2019-03-24T12:38:13.432Z,13.3
2019-03-24T12:39:13.382Z,13.3
2019-03-24T12:40:13.453Z,13.3
2019-03-24T12:41:13.492Z,13.3
2019-03-24T12:42:13.560Z,13.4
2019-03-24T12:43:19.229Z,13.4
2019-03-24T12:44:13.673Z,13.4
2019-03-24T12:45:13.729Z,13.4
2019-03-24T12:46:13.787Z,13.6
2019-03-24T12:47:13.862Z,13.8
2019-03-24T12:48:13.884Z,13.9
2019-03-24T12:49:14.204Z,14
2019-03-24T12:50:13.996Z,14
2019-03-24T12:51:14.041Z,13.9
2019-03-24T12:52:14.094Z,13.8
2019-03-24T12:53:14.196Z,13.9
2019-03-24T12:54:15.149Z,13.8
2019-03-24T12:55:14.715Z,13.8
2019-03-24T12:56:14.375Z,13.8
2019-03-24T12:57:14.340Z,14
2019-03-24T12:58:14.387Z,14
2019-03-24T12:59:14.479Z,14
2019-03-24T13:00:14.503Z,14
2019-03-24T13:01:14.590Z,14.1
2019-03-24T13:02:14.610Z,14.3
2019-03-24T13:03:14.984Z,14.4
2019-03-24T13:04:14.997Z,14.3
2019-03-24T13:05:15.152Z,14.4
2019-03-24T13:06:15.112Z,14.4
2019-03-24T13:07:14.842Z,14.4
2019-03-24T13:08:14.902Z,14.5
2019-03-24T13:09:14.981Z,14.5
2019-03-24T13:10:15.004Z,14.4
2019-03-24T13:11:15.068Z,14.5
2019-03-24T13:12:15.130Z,14.5
2019-03-24T13:13:15.160Z,14.6
2019-03-24T13:14:15.255Z,14.7
2019-03-24T13:15:15.289Z,14.6
2019-03-24T13:16:15.325Z,14.7
2019-03-24T13:17:15.397Z,14.7
2019-03-24T13:18:15.480Z,14.7
2019-03-24T13:19:15.556Z,14.7
2019-03-24T13:20:20.599Z,14.7
2019-03-24T13:21:15.713Z,14.7
2019-03-24T13:22:15.700Z,14.9
2019-03-24T13:23:15.848Z,14.8
2019-03-24T13:24:15.808Z,14.8
2019-03-24T13:25:15.884Z,14.9
2019-03-24T13:26:15.897Z,14.8
2019-03-24T13:27:15.966Z,14.8
2019-03-24T13:28:16.026Z,14.7
2019-03-24T13:29:16.053Z,14.6
2019-03-24T13:30:16.286Z,14.5
2019-03-24T13:31:16.197Z,14.4
2019-03-24T13:32:16.268Z,14.5
2019-03-24T13:33:16.287Z,14.6
2019-03-24T13:34:16.368Z,14.6
2019-03-24T13:35:16.454Z,14.6
2019-03-24T13:36:16.438Z,14.4
2019-03-24T13:37:16.492Z,14.5
2019-03-24T13:38:16.697Z,14.4
2019-03-24T13:39:16.589Z,14.3
2019-03-24T13:40:16.668Z,14.2
2019-03-24T13:41:16.729Z,14.1
2019-03-24T13:42:16.758Z,14
2019-03-24T13:43:16.889Z,14
2019-03-24T13:44:16.887Z,13.9
2019-03-24T13:45:16.981Z,13.9
2019-03-24T13:46:17.027Z,14